GAF22A EDDS-EDDK
Flight info
| Callsign | GAF22A |
|---|---|
| Flight time | 0h 52m |
| Altitude | 24000 |
| Route | TAGIK2H/07 TAGIK Z3 VATAK T840 GULKO |
| Aircraft | A321/M-SDE3FGHIRWY/LB1 |
Departure
| Time | 2026-04-22 18:05 |
|---|---|
| Airport | Stuttgart Airport (EDDS) |
Arrival
| Time | 2026-04-22 18:57 |
|---|---|
| Airport | Cologne Bonn Airport (EDDK) |
| Time | Latitude | Longitude | Altitude | Speed | Heading |
|---|---|---|---|---|---|
| 2026-04-22 17:47 | 48.68724 | 9.19262 | 1286 ft | 0 kts | 164° |
| 2026-04-22 18:00 | 48.68723 | 9.19262 | 1258 ft | 1 kts | 164° |
| 2026-04-22 18:00 | 48.68705 | 9.19270 | 1290 ft | 0 kts | 164° |
| 2026-04-22 18:00 | 48.68704 | 9.19271 | 1290 ft | 1 kts | 164° |
| 2026-04-22 18:01 | 48.68681 | 9.19282 | 1288 ft | 6 kts | 156° |
| 2026-04-22 18:01 | 48.68663 | 9.19347 | 1286 ft | 9 kts | 86° |
| 2026-04-22 18:01 | 48.68682 | 9.19454 | 1286 ft | 12 kts | 74° |
| 2026-04-22 18:01 | 48.68709 | 9.19595 | 1288 ft | 15 kts | 73° |
| 2026-04-22 18:02 | 48.68741 | 9.19763 | 1286 ft | 18 kts | 74° |
| 2026-04-22 18:02 | 48.68752 | 9.19933 | 1289 ft | 16 kts | 119° |
| 2026-04-22 18:02 | 48.68687 | 9.19986 | 1287 ft | 4 kts | 165° |
| 2026-04-22 18:02 | 48.68680 | 9.19989 | 1286 ft | 0 kts | 164° |
| 2026-04-22 18:04 | 48.68655 | 9.19999 | 1287 ft | 9 kts | 164° |
| 2026-04-22 18:04 | 48.68598 | 9.20097 | 1288 ft | 17 kts | 99° |
| 2026-04-22 18:05 | 48.68661 | 9.20475 | 1289 ft | 76 kts | 74° |
| 2026-04-22 18:05 | 48.68887 | 9.21659 | 1292 ft | 153 kts | 73° |
| 2026-04-22 18:05 | 48.69180 | 9.23260 | 2029 ft | 159 kts | 72° |
| 2026-04-22 18:05 | 48.69475 | 9.24886 | 2899 ft | 164 kts | 75° |
| 2026-04-22 18:06 | 48.69791 | 9.26636 | 3412 ft | 180 kts | 75° |
| 2026-04-22 18:06 | 48.70138 | 9.28552 | 3869 ft | 197 kts | 74° |
| 2026-04-22 18:06 | 48.70541 | 9.30663 | 4180 ft | 222 kts | 73° |
| 2026-04-22 18:06 | 48.71003 | 9.33028 | 4702 ft | 244 kts | 73° |
| 2026-04-22 18:07 | 48.71494 | 9.35535 | 5635 ft | 251 kts | 74° |
| 2026-04-22 18:07 | 48.71991 | 9.38088 | 6597 ft | 256 kts | 75° |
| 2026-04-22 18:07 | 48.72623 | 9.40632 | 7496 ft | 263 kts | 58° |
| 2026-04-22 18:07 | 48.74018 | 9.42461 | 8388 ft | 273 kts | 28° |
| 2026-04-22 18:08 | 48.75830 | 9.43391 | 9402 ft | 277 kts | 15° |
| 2026-04-22 18:08 | 48.77747 | 9.43467 | 10335 ft | 286 kts | 352° |
| 2026-04-22 18:08 | 48.79676 | 9.42584 | 11137 ft | 297 kts | 340° |
| 2026-04-22 18:08 | 48.81605 | 9.41114 | 11476 ft | 323 kts | 335° |
| 2026-04-22 18:09 | 48.83682 | 9.39517 | 11728 ft | 346 kts | 336° |
| 2026-04-22 18:09 | 48.85905 | 9.37811 | 11916 ft | 370 kts | 332° |
| 2026-04-22 18:09 | 48.88074 | 9.35476 | 12099 ft | 394 kts | 321° |
| 2026-04-22 18:09 | 48.89959 | 9.32360 | 12602 ft | 407 kts | 308° |
| 2026-04-22 18:10 | 48.91403 | 9.28619 | 13248 ft | 414 kts | 296° |
| 2026-04-22 18:10 | 48.92317 | 9.24443 | 13935 ft | 421 kts | 284° |
| 2026-04-22 18:10 | 48.92813 | 9.20029 | 14547 ft | 425 kts | 281° |
| 2026-04-22 18:10 | 48.93287 | 9.15582 | 15167 ft | 428 kts | 281° |
| 2026-04-22 18:11 | 48.93764 | 9.11094 | 15790 ft | 431 kts | 281° |
| 2026-04-22 18:11 | 48.94269 | 9.06577 | 16391 ft | 434 kts | 284° |
| 2026-04-22 18:11 | 48.95301 | 9.02282 | 16955 ft | 433 kts | 300° |
| 2026-04-22 18:11 | 48.97039 | 8.98558 | 17515 ft | 433 kts | 316° |
| 2026-04-22 18:12 | 48.99324 | 8.95688 | 18052 ft | 432 kts | 330° |
| 2026-04-22 18:12 | 49.02047 | 8.93802 | 18621 ft | 430 kts | 346° |
| 2026-04-22 18:12 | 49.04022 | 8.93178 | 18956 ft | 429 kts | 355° |
| 2026-04-22 18:12 | 49.07968 | 8.93355 | 19644 ft | 429 kts | 7° |
| 2026-04-22 18:13 | 49.10947 | 8.93781 | 20191 ft | 432 kts | 7° |
| 2026-04-22 18:13 | 49.13943 | 8.94208 | 20734 ft | 434 kts | 7° |
| 2026-04-22 18:13 | 49.16961 | 8.94633 | 21264 ft | 437 kts | 6° |
| 2026-04-22 18:13 | 49.19994 | 8.95051 | 21790 ft | 439 kts | 6° |
| 2026-04-22 18:14 | 49.23049 | 8.95468 | 22306 ft | 442 kts | 6° |
| 2026-04-22 18:14 | 49.26122 | 8.95888 | 22790 ft | 444 kts | 6° |
| 2026-04-22 18:14 | 49.29208 | 8.96316 | 23258 ft | 447 kts | 6° |
| 2026-04-22 18:14 | 49.32307 | 8.96751 | 23687 ft | 449 kts | 6° |
| 2026-04-22 18:15 | 49.35424 | 8.97191 | 24052 ft | 451 kts | 6° |
| 2026-04-22 18:15 | 49.38560 | 8.97633 | 24243 ft | 452 kts | 6° |
| 2026-04-22 18:15 | 49.41693 | 8.98074 | 24285 ft | 452 kts | 7° |
| 2026-04-22 18:15 | 49.44821 | 8.98514 | 24291 ft | 452 kts | 7° |
| 2026-04-22 18:16 | 49.47955 | 8.98955 | 24290 ft | 452 kts | 7° |
| 2026-04-22 18:16 | 49.51087 | 8.99398 | 24290 ft | 452 kts | 7° |
| 2026-04-22 18:16 | 49.54179 | 8.99834 | 24295 ft | 452 kts | 7° |
| 2026-04-22 18:16 | 49.57327 | 9.00042 | 24289 ft | 454 kts | 359° |
| 2026-04-22 18:17 | 49.60465 | 8.99438 | 24282 ft | 457 kts | 348° |
| 2026-04-22 18:17 | 49.63450 | 8.97735 | 24295 ft | 461 kts | 334° |
| 2026-04-22 18:17 | 49.66169 | 8.95071 | 24297 ft | 464 kts | 329° |
| 2026-04-22 18:17 | 49.68843 | 8.92273 | 24296 ft | 464 kts | 328° |
| 2026-04-22 18:18 | 49.71509 | 8.89452 | 24292 ft | 464 kts | 328° |
| 2026-04-22 18:18 | 49.74168 | 8.86619 | 24293 ft | 464 kts | 328° |
| 2026-04-22 18:18 | 49.76824 | 8.83784 | 24293 ft | 465 kts | 328° |
| 2026-04-22 18:18 | 49.79489 | 8.80944 | 24292 ft | 465 kts | 328° |
| 2026-04-22 18:19 | 49.82152 | 8.78111 | 24295 ft | 465 kts | 328° |
| 2026-04-22 18:19 | 49.84820 | 8.75274 | 24296 ft | 465 kts | 328° |
| 2026-04-22 18:19 | 49.87488 | 8.72435 | 24293 ft | 465 kts | 328° |
| 2026-04-22 18:19 | 49.90159 | 8.69586 | 24287 ft | 466 kts | 328° |
| 2026-04-22 18:20 | 49.92837 | 8.66727 | 24281 ft | 466 kts | 328° |
| 2026-04-22 18:20 | 49.95509 | 8.63873 | 24280 ft | 467 kts | 328° |
| 2026-04-22 18:20 | 49.98184 | 8.61005 | 24280 ft | 467 kts | 328° |
| 2026-04-22 18:20 | 50.00862 | 8.58127 | 24281 ft | 467 kts | 328° |
| 2026-04-22 18:21 | 50.03547 | 8.55276 | 24281 ft | 466 kts | 330° |
| 2026-04-22 18:21 | 50.06390 | 8.52895 | 24281 ft | 463 kts | 339° |
| 2026-04-22 18:21 | 50.09397 | 8.51122 | 24125 ft | 462 kts | 343° |
| 2026-04-22 18:21 | 50.12431 | 8.49493 | 23833 ft | 460 kts | 344° |
| 2026-04-22 18:22 | 50.15418 | 8.47890 | 23505 ft | 459 kts | 344° |
| 2026-04-22 18:22 | 50.18436 | 8.46274 | 23170 ft | 458 kts | 344° |
| 2026-04-22 18:22 | 50.21441 | 8.44660 | 22845 ft | 456 kts | 344° |
| 2026-04-22 18:22 | 50.24433 | 8.43045 | 22520 ft | 454 kts | 344° |
| 2026-04-22 18:23 | 50.27404 | 8.41414 | 22200 ft | 452 kts | 342° |
| 2026-04-22 18:23 | 50.30259 | 8.39316 | 21876 ft | 454 kts | 334° |
| 2026-04-22 18:23 | 50.32940 | 8.36717 | 21314 ft | 452 kts | 330° |
| 2026-04-22 18:24 | 50.38179 | 8.31469 | 19784 ft | 441 kts | 330° |
| 2026-04-22 18:24 | 50.40747 | 8.28889 | 19060 ft | 435 kts | 330° |
| 2026-04-22 18:24 | 50.45797 | 8.23836 | 17489 ft | 426 kts | 330° |
| 2026-04-22 18:25 | 50.48284 | 8.21352 | 16702 ft | 421 kts | 330° |
| 2026-04-22 18:25 | 50.50744 | 8.18889 | 15928 ft | 417 kts | 330° |
| 2026-04-22 18:25 | 50.53179 | 8.16440 | 15163 ft | 413 kts | 330° |
| 2026-04-22 18:26 | 50.57934 | 8.11526 | 13668 ft | 407 kts | 324° |
| 2026-04-22 18:26 | 50.59898 | 8.08322 | 12875 ft | 407 kts | 312° |
| 2026-04-22 18:26 | 50.61679 | 8.04892 | 12093 ft | 402 kts | 311° |
| 2026-04-22 18:26 | 50.63426 | 8.01481 | 11515 ft | 399 kts | 311° |
| 2026-04-22 18:27 | 50.65141 | 7.98116 | 11340 ft | 399 kts | 311° |
| 2026-04-22 18:27 | 50.66874 | 7.94711 | 11324 ft | 399 kts | 311° |
| 2026-04-22 18:27 | 50.68610 | 7.91301 | 11332 ft | 399 kts | 311° |
| 2026-04-22 18:27 | 50.70349 | 7.87890 | 11326 ft | 399 kts | 311° |
| 2026-04-22 18:28 | 50.72090 | 7.84476 | 11330 ft | 399 kts | 311° |
| 2026-04-22 18:28 | 50.73827 | 7.81062 | 11330 ft | 399 kts | 311° |
| 2026-04-22 18:28 | 50.75564 | 7.77637 | 11330 ft | 399 kts | 311° |
| 2026-04-22 18:28 | 50.77299 | 7.74213 | 11334 ft | 399 kts | 311° |
| 2026-04-22 18:29 | 50.79034 | 7.70787 | 11339 ft | 399 kts | 311° |
| 2026-04-22 18:29 | 50.80765 | 7.67357 | 11331 ft | 399 kts | 311° |
| 2026-04-22 18:29 | 50.82498 | 7.63924 | 11342 ft | 399 kts | 311° |
| 2026-04-22 18:29 | 50.84231 | 7.60487 | 11340 ft | 399 kts | 311° |
| 2026-04-22 18:30 | 50.85922 | 7.57126 | 11333 ft | 376 kts | 311° |
| 2026-04-22 18:30 | 50.88948 | 7.51081 | 11202 ft | 329 kts | 311° |
| 2026-04-22 18:30 | 50.90340 | 7.48301 | 10958 ft | 316 kts | 311° |
| 2026-04-22 18:31 | 50.91668 | 7.45656 | 10718 ft | 305 kts | 311° |
| 2026-04-22 18:31 | 50.92987 | 7.43031 | 10356 ft | 298 kts | 311° |
| 2026-04-22 18:31 | 50.94280 | 7.40461 | 9843 ft | 298 kts | 311° |
| 2026-04-22 18:31 | 50.95572 | 7.37891 | 9311 ft | 298 kts | 311° |
| 2026-04-22 18:32 | 50.96425 | 7.36189 | 8965 ft | 298 kts | 311° |
| 2026-04-22 18:32 | 50.97710 | 7.33616 | 8450 ft | 297 kts | 310° |
| 2026-04-22 18:32 | 50.99407 | 7.30214 | 7788 ft | 296 kts | 310° |
| 2026-04-22 18:32 | 51.00671 | 7.27640 | 7370 ft | 292 kts | 306° |
| 2026-04-22 18:33 | 51.01592 | 7.24791 | 6983 ft | 289 kts | 294° |
| 2026-04-22 18:33 | 51.02112 | 7.22831 | 6649 ft | 290 kts | 294° |
| 2026-04-22 18:33 | 51.02882 | 7.19876 | 6127 ft | 290 kts | 293° |
| 2026-04-22 18:33 | 51.03653 | 7.16921 | 5615 ft | 289 kts | 293° |
| 2026-04-22 18:34 | 51.04425 | 7.13966 | 5111 ft | 289 kts | 293° |
| 2026-04-22 18:34 | 51.05198 | 7.11022 | 4593 ft | 288 kts | 293° |
| 2026-04-22 18:34 | 51.05969 | 7.08087 | 4068 ft | 288 kts | 293° |
| 2026-04-22 18:34 | 51.06629 | 7.05100 | 3567 ft | 287 kts | 280° |
| 2026-04-22 18:35 | 51.06532 | 7.01950 | 3108 ft | 284 kts | 256° |
| 2026-04-22 18:35 | 51.06023 | 6.99010 | 2993 ft | 262 kts | 253° |
| 2026-04-22 18:35 | 51.05539 | 6.96416 | 2998 ft | 227 kts | 251° |
| 2026-04-22 18:35 | 51.04766 | 6.94426 | 3013 ft | 204 kts | 217° |
| 2026-04-22 18:36 | 51.03575 | 6.93652 | 3028 ft | 171 kts | 182° |
| 2026-04-22 18:36 | 51.02467 | 6.93613 | 3011 ft | 151 kts | 174° |
| 2026-04-22 18:36 | 51.01466 | 6.93764 | 3016 ft | 138 kts | 158° |
| 2026-04-22 18:36 | 51.00670 | 6.94508 | 3117 ft | 131 kts | 136° |
| 2026-04-22 18:37 | 50.99965 | 6.95413 | 3176 ft | 131 kts | 137° |
| 2026-04-22 18:37 | 50.99239 | 6.96298 | 3166 ft | 132 kts | 138° |
| 2026-04-22 18:37 | 50.98527 | 6.97221 | 3114 ft | 132 kts | 134° |
| 2026-04-22 18:37 | 50.97867 | 6.98228 | 3005 ft | 131 kts | 131° |
| 2026-04-22 18:38 | 50.97199 | 6.99232 | 2885 ft | 135 kts | 133° |
| 2026-04-22 18:38 | 50.96528 | 7.00259 | 2739 ft | 134 kts | 131° |
| 2026-04-22 18:38 | 50.95849 | 7.01289 | 2610 ft | 139 kts | 131° |
| 2026-04-22 18:39 | 50.94439 | 7.03376 | 2303 ft | 138 kts | 130° |
| 2026-04-22 18:39 | 50.93735 | 7.04424 | 2051 ft | 136 kts | 131° |
| 2026-04-22 18:39 | 50.93053 | 7.05435 | 1799 ft | 135 kts | 131° |
| 2026-04-22 18:39 | 50.92384 | 7.06409 | 1577 ft | 129 kts | 134° |
| 2026-04-22 18:40 | 50.91709 | 7.07363 | 1395 ft | 131 kts | 130° |
| 2026-04-22 18:40 | 50.91058 | 7.08394 | 1220 ft | 136 kts | 130° |
| 2026-04-22 18:40 | 50.90385 | 7.09451 | 985 ft | 132 kts | 131° |
| 2026-04-22 18:40 | 50.89706 | 7.10461 | 741 ft | 138 kts | 133° |
| 2026-04-22 18:41 | 50.88999 | 7.11508 | 551 ft | 139 kts | 133° |
| 2026-04-22 18:41 | 50.88306 | 7.12528 | 379 ft | 132 kts | 134° |
| 2026-04-22 18:41 | 50.87598 | 7.13567 | 726 ft | 150 kts | 135° |
| 2026-04-22 18:41 | 50.86765 | 7.14766 | 1738 ft | 172 kts | 134° |
| 2026-04-22 18:42 | 50.85860 | 7.16019 | 2509 ft | 177 kts | 135° |
| 2026-04-22 18:42 | 50.84898 | 7.17321 | 3299 ft | 182 kts | 136° |
| 2026-04-22 18:42 | 50.83909 | 7.18715 | 3887 ft | 207 kts | 136° |
| 2026-04-22 18:42 | 50.82736 | 7.20425 | 3992 ft | 246 kts | 136° |
| 2026-04-22 18:43 | 50.81241 | 7.21859 | 4006 ft | 258 kts | 162° |
| 2026-04-22 18:43 | 50.79466 | 7.21995 | 4011 ft | 264 kts | 191° |
| 2026-04-22 18:43 | 50.77812 | 7.20734 | 4011 ft | 268 kts | 219° |
| 2026-04-22 18:43 | 50.76683 | 7.18390 | 4013 ft | 271 kts | 240° |
| 2026-04-22 18:44 | 50.75825 | 7.15733 | 4013 ft | 272 kts | 243° |
| 2026-04-22 18:44 | 50.74998 | 7.13048 | 4012 ft | 272 kts | 243° |
| 2026-04-22 18:44 | 50.74194 | 7.10417 | 4257 ft | 253 kts | 243° |
| 2026-04-22 18:44 | 50.73454 | 7.07993 | 4649 ft | 243 kts | 243° |
| 2026-04-22 18:45 | 50.72718 | 7.05581 | 4959 ft | 245 kts | 243° |
| 2026-04-22 18:45 | 50.71979 | 7.03165 | 5006 ft | 244 kts | 243° |
| 2026-04-22 18:45 | 50.71245 | 7.00761 | 5020 ft | 243 kts | 243° |
| 2026-04-22 18:45 | 50.70530 | 6.98352 | 5019 ft | 243 kts | 248° |
| 2026-04-22 18:46 | 50.70318 | 6.95736 | 5019 ft | 243 kts | 279° |
| 2026-04-22 18:46 | 50.70991 | 6.93336 | 5021 ft | 241 kts | 312° |
| 2026-04-22 18:46 | 50.72281 | 6.91734 | 5020 ft | 239 kts | 331° |
| 2026-04-22 18:46 | 50.73725 | 6.90431 | 5018 ft | 240 kts | 333° |
| 2026-04-22 18:47 | 50.75186 | 6.89169 | 5014 ft | 240 kts | 333° |
| 2026-04-22 18:47 | 50.76655 | 6.87909 | 5009 ft | 240 kts | 333° |
| 2026-04-22 18:47 | 50.78121 | 6.86653 | 5024 ft | 240 kts | 333° |
| 2026-04-22 18:47 | 50.79589 | 6.85397 | 5021 ft | 240 kts | 333° |
| 2026-04-22 18:48 | 50.81056 | 6.84143 | 5015 ft | 240 kts | 333° |
| 2026-04-22 18:48 | 50.82522 | 6.82889 | 5010 ft | 240 kts | 333° |
| 2026-04-22 18:48 | 50.83989 | 6.81633 | 5003 ft | 240 kts | 333° |
| 2026-04-22 18:48 | 50.85457 | 6.80379 | 5002 ft | 240 kts | 333° |
| 2026-04-22 18:49 | 50.86930 | 6.79117 | 5001 ft | 240 kts | 333° |
| 2026-04-22 18:49 | 50.88399 | 6.77856 | 5003 ft | 240 kts | 333° |
| 2026-04-22 18:49 | 50.89868 | 6.76599 | 5015 ft | 240 kts | 333° |
| 2026-04-22 18:49 | 50.91333 | 6.75344 | 5017 ft | 240 kts | 333° |
| 2026-04-22 18:50 | 50.92801 | 6.74087 | 5016 ft | 240 kts | 333° |
| 2026-04-22 18:50 | 50.94278 | 6.72841 | 5018 ft | 240 kts | 337° |
| 2026-04-22 18:50 | 50.95878 | 6.72361 | 5014 ft | 234 kts | 8° |
| 2026-04-22 18:50 | 50.97358 | 6.73291 | 5033 ft | 230 kts | 40° |
| 2026-04-22 18:51 | 50.98449 | 6.75128 | 5021 ft | 229 kts | 52° |
| 2026-04-22 18:51 | 50.99430 | 6.77078 | 5018 ft | 228 kts | 54° |
| 2026-04-22 18:51 | 51.00373 | 6.79108 | 5011 ft | 228 kts | 58° |
| 2026-04-22 18:51 | 51.00921 | 6.81434 | 5009 ft | 226 kts | 80° |
| 2026-04-22 18:52 | 51.01157 | 6.83901 | 4712 ft | 225 kts | 83° |
| 2026-04-22 18:52 | 51.01306 | 6.86374 | 4403 ft | 224 kts | 90° |
| 2026-04-22 18:52 | 51.01112 | 6.88812 | 4010 ft | 223 kts | 106° |
| 2026-04-22 18:52 | 51.00379 | 6.90952 | 3534 ft | 221 kts | 129° |
| 2026-04-22 18:53 | 50.99324 | 6.92668 | 3103 ft | 210 kts | 128° |
| 2026-04-22 18:53 | 50.98531 | 6.94460 | 2897 ft | 190 kts | 120° |
| 2026-04-22 18:53 | 50.97854 | 6.96196 | 2773 ft | 181 kts | 121° |
| 2026-04-22 18:53 | 50.97156 | 6.97851 | 2732 ft | 180 kts | 122° |
| 2026-04-22 18:54 | 50.96431 | 6.99454 | 2605 ft | 175 kts | 123° |
| 2026-04-22 18:54 | 50.95695 | 7.00958 | 2429 ft | 171 kts | 126° |
| 2026-04-22 18:54 | 50.94922 | 7.02353 | 2195 ft | 170 kts | 128° |
| 2026-04-22 18:54 | 50.94120 | 7.03745 | 1913 ft | 166 kts | 128° |
| 2026-04-22 18:55 | 50.93361 | 7.04975 | 1646 ft | 146 kts | 130° |
| 2026-04-22 18:55 | 50.92649 | 7.06027 | 1501 ft | 136 kts | 132° |
| 2026-04-22 18:55 | 50.91972 | 7.07024 | 1335 ft | 131 kts | 130° |
| 2026-04-22 18:55 | 50.91304 | 7.08014 | 1139 ft | 135 kts | 133° |
| 2026-04-22 18:56 | 50.90648 | 7.09034 | 934 ft | 130 kts | 132° |
| 2026-04-22 18:56 | 50.89978 | 7.10050 | 755 ft | 135 kts | 134° |
| 2026-04-22 18:56 | 50.89296 | 7.11067 | 629 ft | 137 kts | 134° |
| 2026-04-22 18:56 | 50.88605 | 7.12084 | 468 ft | 132 kts | 135° |
| 2026-04-22 18:57 | 50.87939 | 7.13060 | 291 ft | 129 kts | 134° |
| 2026-04-22 18:57 | 50.87329 | 7.13958 | 242 ft | 105 kts | 138° |
| 2026-04-22 18:57 | 50.86966 | 7.14485 | 258 ft | 25 kts | 143° |
| 2026-04-22 18:57 | 50.86878 | 7.14437 | 260 ft | 14 kts | 257° |
| 2026-04-22 18:58 | 50.86890 | 7.14304 | 258 ft | 10 kts | 280° |
| 2026-04-22 18:58 | 50.86896 | 7.14256 | 256 ft | 2 kts | 280° |
| 2026-04-22 18:58 | 50.86897 | 7.14249 | 256 ft | 0 kts | 280° |
| 2026-04-22 18:58 | 50.86898 | 7.14234 | 256 ft | 4 kts | 280° |
| 2026-04-22 18:59 | 50.86907 | 7.14162 | 255 ft | 9 kts | 281° |
| 2026-04-22 18:59 | 50.86938 | 7.14056 | 253 ft | 13 kts | 315° |
| 2026-04-22 18:59 | 50.87029 | 7.13927 | 245 ft | 22 kts | 318° |
| 2026-04-22 18:59 | 50.87155 | 7.13745 | 240 ft | 26 kts | 317° |
| 2026-04-22 19:00 | 50.87250 | 7.13605 | 236 ft | 19 kts | 318° |
| 2026-04-22 19:00 | 50.87363 | 7.13445 | 233 ft | 24 kts | 318° |
| 2026-04-22 19:00 | 50.87494 | 7.13255 | 233 ft | 27 kts | 317° |
| 2026-04-22 19:00 | 50.87599 | 7.13099 | 233 ft | 16 kts | 317° |
| 2026-04-22 19:01 | 50.87693 | 7.12964 | 233 ft | 20 kts | 318° |
| 2026-04-22 19:01 | 50.87773 | 7.12848 | 233 ft | 11 kts | 315° |
| 2026-04-22 19:01 | 50.87782 | 7.12717 | 232 ft | 14 kts | 257° |
| 2026-04-22 19:01 | 50.87748 | 7.12549 | 232 ft | 17 kts | 239° |
| 2026-04-22 19:02 | 50.87636 | 7.12482 | 232 ft | 19 kts | 195° |
| 2026-04-22 19:02 | 50.87499 | 7.12412 | 232 ft | 22 kts | 198° |
| 2026-04-22 19:02 | 50.87347 | 7.12334 | 234 ft | 19 kts | 198° |
| 2026-04-22 19:02 | 50.87249 | 7.12284 | 232 ft | 7 kts | 197° |
| 2026-04-22 19:03 | 50.87205 | 7.12262 | 232 ft | 6 kts | 198° |
| 2026-04-22 19:03 | 50.87171 | 7.12243 | 233 ft | 5 kts | 201° |
| 2026-04-22 19:03 | 50.87152 | 7.12230 | 233 ft | 2 kts | 206° |
| 2026-04-22 19:03 | 50.87135 | 7.12207 | 233 ft | 8 kts | 223° |
| 2026-04-22 19:04 | 50.87075 | 7.12111 | 238 ft | 15 kts | 219° |
| 2026-04-22 19:04 | 50.86954 | 7.12048 | 233 ft | 21 kts | 179° |
| 2026-04-22 19:04 | 50.86831 | 7.12089 | 234 ft | 17 kts | 165° |
| 2026-04-22 19:04 | 50.86742 | 7.12126 | 232 ft | 6 kts | 168° |
| 2026-04-22 19:05 | 50.86715 | 7.12090 | 234 ft | 6 kts | 245° |
| 2026-04-22 19:05 | 50.86699 | 7.12003 | 232 ft | 8 kts | 256° |
| 2026-04-22 19:05 | 50.86692 | 7.11955 | 234 ft | 0 kts | 255° |